www.cux-wetter.de
Wetterdaten: Dienstag, 20.08.2013
Datum Zeit Temp. A. Feuchte A. Luftdruck Regen Wind Richtung Richtung Sonnenschein Solar Taupunkt Windchill Windben
20.08.2013 00:00 17,3 C 74 % 1020,5 hPa 0,0 l/m 21,9 km/h (4 Bft) O-NO 60 0 min 0 W/m 12,6 C 12,3 C 21,9 km/h (4 Bft)
20.08.2013 00:15 17,2 C 75 % 1021,5 hPa 0,0 l/m 25,5 km/h (4 Bft) O-NO 65 0 min 0 W/m 12,7 C 11,5 C 25,5 km/h (4 Bft)
20.08.2013 00:30 17,2 C 75 % 1021,5 hPa 0,0 l/m 20,9 km/h (4 Bft) NO 55 0 min 0 W/m 12,7 C 12,4 C 20,9 km/h (4 Bft)
20.08.2013 00:44 17,1 C 73 % 1021,5 hPa 0,0 l/m 18,8 km/h (3 Bft) NO 40 0 min 0 W/m 12,2 C 12,7 C 18,8 km/h (3 Bft)
20.08.2013 01:00 17,1 C 72 % 1021,5 hPa 0,0 l/m 20,1 km/h (4 Bft) NO 50 0 min 0 W/m 12,0 C 12,4 C 20,1 km/h (4 Bft)
20.08.2013 01:15 17,0 C 72 % 1022,5 hPa 0,0 l/m 21,2 km/h (4 Bft) O-NO 65 0 min 0 W/m 11,9 C 12,1 C 21,2 km/h (4 Bft)
20.08.2013 01:30 16,9 C 71 % 1022,5 hPa 0,0 l/m 20,6 km/h (4 Bft) N-NO 25 0 min 0 W/m 11,6 C 12,1 C 20,6 km/h (4 Bft)
20.08.2013 01:45 16,8 C 72 % 1022,5 hPa 0,0 l/m 17,1 km/h (3 Bft) NO 50 0 min 0 W/m 11,7 C 12,8 C 17,1 km/h (3 Bft)
20.08.2013 02:00 16,7 C 71 % 1022,5 hPa 0,0 l/m 17,8 km/h (3 Bft) NO 50 0 min 0 W/m 11,4 C 12,5 C 17,8 km/h (3 Bft)
20.08.2013 02:15 16,7 C 72 % 1022,5 hPa 0,0 l/m 20,5 km/h (4 Bft) N-NO 25 0 min 0 W/m 11,6 C 11,8 C 20,5 km/h (4 Bft)
20.08.2013 02:30 16,6 C 73 % 1022,5 hPa 0,0 l/m 16,3 km/h (3 Bft) NO 35 0 min 0 W/m 11,7 C 12,8 C 16,3 km/h (3 Bft)
20.08.2013 02:45 16,5 C 73 % 1022,5 hPa 0,0 l/m 16,2 km/h (3 Bft) N 355 0 min 0 W/m 11,6 C 12,7 C 16,2 km/h (3 Bft)
20.08.2013 03:00 16,4 C 73 % 1022,5 hPa 0,0 l/m 19,7 km/h (3 Bft) N-NW 345 0 min 0 W/m 11,5 C 11,6 C 19,7 km/h (3 Bft)
20.08.2013 03:14 16,4 C 73 % 1022,5 hPa 0,0 l/m 11,6 km/h (2 Bft) N 5 0 min 0 W/m 11,5 C 14,0 C 11,6 km/h (2 Bft)
20.08.2013 03:30 16,3 C 74 % 1022,5 hPa 0,0 l/m 14,8 km/h (3 Bft) N 350 0 min 0 W/m 11,7 C 12,8 C 14,8 km/h (3 Bft)
20.08.2013 03:45 16,3 C 75 % 1022,5 hPa 0,0 l/m 11,4 km/h (2 Bft) NW 325 0 min 0 W/m 11,9 C 14,0 C 11,4 km/h (2 Bft)
20.08.2013 04:00 16,2 C 75 % 1022,5 hPa 0,0 l/m 9,2 km/h (2 Bft) N-NW 330 0 min 0 W/m 11,8 C 14,8 C 9,2 km/h (2 Bft)
20.08.2013 04:15 16,0 C 75 % 1022,5 hPa 0,0 l/m 10,2 km/h (2 Bft) W-NW 295 0 min 0 W/m 11,6 C 14,1 C 10,2 km/h (2 Bft)
20.08.2013 04:30 16,0 C 75 % 1022,5 hPa 0,0 l/m 8,9 km/h (2 Bft) NW 320 0 min 0 W/m 11,6 C 14,7 C 8,9 km/h (2 Bft)
20.08.2013 04:45 16,0 C 75 % 1022,5 hPa 0,0 l/m 8,9 km/h (2 Bft) NW 320 0 min 0 W/m 11,6 C 14,7 C 8,9 km/h (2 Bft)
20.08.2013 05:00 16,0 C 76 % 1022,5 hPa 0,0 l/m 11,5 km/h (2 Bft) N-NW 340 0 min 0 W/m 11,8 C 13,6 C 11,5 km/h (2 Bft)
20.08.2013 05:15 15,9 C 76 % 1023,5 hPa 0,0 l/m 9,6 km/h (2 Bft) NW 320 0 min 0 W/m 11,7 C 14,3 C 9,6 km/h (2 Bft)
20.08.2013 05:30 16,0 C 75 % 1023,5 hPa 0,0 l/m 10,3 km/h (2 Bft) N-NW 330 0 min 0 W/m 11,6 C 14,1 C 10,3 km/h (2 Bft)
20.08.2013 05:45 15,9 C 75 % 1023,5 hPa 0,0 l/m 9,6 km/h (2 Bft) NW 315 0 min 0 W/m 11,5 C 14,3 C 9,6 km/h (2 Bft)
20.08.2013 06:00 15,9 C 75 % 1023,5 hPa 0,0 l/m 8,9 km/h (2 Bft) N-NW 330 0 min 0 W/m 11,5 C 14,6 C 8,9 km/h (2 Bft)
20.08.2013 06:15 15,9 C 75 % 1023,5 hPa 0,0 l/m 10,4 km/h (2 Bft) NW 325 0 min 0 W/m 11,5 C 13,9 C 10,4 km/h (2 Bft)
20.08.2013 06:30 15,8 C 75 % 1023,5 hPa 0,0 l/m 10,5 km/h (2 Bft) NW 315 0 min 0 W/m 11,4 C 13,8 C 10,5 km/h (2 Bft)
20.08.2013 06:45 15,7 C 76 % 1023,5 hPa 0,0 l/m 8,7 km/h (2 Bft) NW 315 0 min 0 W/m 11,5 C 14,5 C 8,7 km/h (2 Bft)
20.08.2013 07:00 15,7 C 77 % 1023,5 hPa 0,0 l/m 10,0 km/h (2 Bft) NW 325 0 min 0 W/m 11,7 C 13,9 C 10,0 km/h (2 Bft)
20.08.2013 07:15 15,8 C 77 % 1023,5 hPa 0,0 l/m 10,2 km/h (2 Bft) NW 320 0 min 0 W/m 11,8 C 13,9 C 10,2 km/h (2 Bft)
20.08.2013 07:30 16,0 C 77 % 1023,5 hPa 0,0 l/m 9,5 km/h (2 Bft) NW 310 0 min 0 W/m 12,0 C 14,4 C 9,5 km/h (2 Bft)
20.08.2013 07:45 16,2 C 77 % 1024,5 hPa 0,0 l/m 9,2 km/h (2 Bft) NW 315 0 min 0 W/m 12,2 C 14,8 C 9,2 km/h (2 Bft)
20.08.2013 08:00 16,4 C 76 % 1024,5 hPa 0,0 l/m 8,3 km/h (2 Bft) NW 305 0 min 0 W/m 12,2 C 15,4 C 8,3 km/h (2 Bft)
20.08.2013 08:15 16,4 C 77 % 1024,5 hPa 0,0 l/m 20,8 km/h (4 Bft) N-NW 340 0 min 0 W/m 12,4 C 11,4 C 20,8 km/h (4 Bft)
20.08.2013 08:30 16,1 C 78 % 1024,5 hPa 0,0 l/m 15,8 km/h (3 Bft) N-NW 345 0 min 0 W/m 12,3 C 12,3 C 15,8 km/h (3 Bft)
20.08.2013 08:45 16,1 C 79 % 1024,5 hPa 0,0 l/m 11,0 km/h (2 Bft) NW 320 0 min 0 W/m 12,5 C 13,9 C 11,0 km/h (2 Bft)
20.08.2013 09:00 16,3 C 78 % 1024,5 hPa 0,0 l/m 7,9 km/h (2 Bft) N-NO 20 0 min 0 W/m 12,5 C 15,5 C 7,9 km/h (2 Bft)
20.08.2013 09:15 16,6 C 77 % 1024,5 hPa 0,0 l/m 7,7 km/h (2 Bft) NW 305 0 min 0 W/m 12,5 C 15,9 C 7,7 km/h (2 Bft)
20.08.2013 09:30 17,0 C 76 % 1024,5 hPa 0,0 l/m 9,7 km/h (2 Bft) NW 315 0 min 0 W/m 12,7 C 15,4 C 9,7 km/h (2 Bft)
20.08.2013 09:45 17,4 C 72 % 1025,5 hPa 0,0 l/m 16,3 km/h (3 Bft) N 10 0 min 0 W/m 12,3 C 13,7 C 16,3 km/h (3 Bft)
20.08.2013 10:00 17,5 C 70 % 1025,5 hPa 0,0 l/m 14,4 km/h (3 Bft) NW 325 0 min 0 W/m 12,0 C 14,4 C 14,4 km/h (3 Bft)
20.08.2013 10:15 17,6 C 69 % 1025,5 hPa 0,0 l/m 17,0 km/h (3 Bft) N-NW 345 0 min 0 W/m 11,8 C 13,8 C 17,0 km/h (3 Bft)
20.08.2013 10:30 17,8 C 70 % 1025,5 hPa 0,0 l/m 16,1 km/h (3 Bft) NW 310 0 min 0 W/m 12,3 C 14,3 C 16,1 km/h (3 Bft)
20.08.2013 10:45 18,4 C 69 % 1025,5 hPa 0,0 l/m 15,0 km/h (3 Bft) NW 325 0 min 0 W/m 12,6 C 15,3 C 15,0 km/h (3 Bft)
20.08.2013 11:00 19,0 C 67 % 1025,5 hPa 0,0 l/m 16,3 km/h (3 Bft) N 350 0 min 0 W/m 12,7 C 15,7 C 16,3 km/h (3 Bft)
20.08.2013 11:15 19,3 C 66 % 1025,5 hPa 0,0 l/m 14,9 km/h (3 Bft) N-NW 335 0 min 0 W/m 12,8 C 16,4 C 14,9 km/h (3 Bft)
20.08.2013 11:30 19,6 C 66 % 1025,5 hPa 0,0 l/m 15,5 km/h (3 Bft) N 355 0 min 0 W/m 13,1 C 16,6 C 15,5 km/h (3 Bft)
20.08.2013 11:45 20,1 C 65 % 1025,5 hPa 0,0 l/m 14,0 km/h (3 Bft) N 355 0 min 0 W/m 13,3 C 17,6 C 14,0 km/h (3 Bft)
20.08.2013 12:00 20,3 C 64 % 1025,5 hPa 0,0 l/m 15,0 km/h (3 Bft) N-NO 25 0 min 0 W/m 13,3 C 17,6 C 15,0 km/h (3 Bft)
20.08.2013 12:15 20,7 C 63 % 1025,5 hPa 0,0 l/m 15,3 km/h (3 Bft) NW 325 0 min 0 W/m 13,4 C 18,0 C 15,3 km/h (3 Bft)
20.08.2013 12:30 20,8 C 63 % 1026,5 hPa 0,0 l/m 16,3 km/h (3 Bft) NW 325 0 min 0 W/m 13,5 C 17,9 C 16,3 km/h (3 Bft)
20.08.2013 12:45 21,3 C 62 % 1026,5 hPa 0,0 l/m 20,3 km/h (4 Bft) NW 320 0 min 0 W/m 13,7 C 17,8 C 20,3 km/h (4 Bft)
20.08.2013 13:00 21,4 C 61 % 1026,5 hPa 0,0 l/m 21,0 km/h (4 Bft) NW 305 0 min 0 W/m 13,6 C 17,9 C 21,0 km/h (4 Bft)
20.08.2013 13:15 21,5 C 61 % 1026,5 hPa 0,0 l/m 20,4 km/h (4 Bft) NW 310 0 min 0 W/m 13,7 C 18,1 C 20,4 km/h (4 Bft)
20.08.2013 13:30 21,6 C 60 % 1026,5 hPa 0,0 l/m 19,0 km/h (3 Bft) N 350 0 min 0 W/m 13,5 C 18,4 C 19,0 km/h (3 Bft)
20.08.2013 13:45 21,6 C 58 % 1026,5 hPa 0,0 l/m 20,8 km/h (4 Bft) N-NW 330 0 min 0 W/m 13,0 C 18,1 C 20,8 km/h (4 Bft)
20.08.2013 14:00 21,7 C 57 % 1026,5 hPa 0,0 l/m 18,5 km/h (3 Bft) N-NW 330 0 min 0 W/m 12,8 C 18,7 C 18,5 km/h (3 Bft)
20.08.2013 14:15 22,0 C 56 % 1026,5 hPa 0,0 l/m 20,6 km/h (4 Bft) NW 305 0 min 0 W/m 12,8 C 18,7 C 20,6 km/h (4 Bft)
20.08.2013 14:30 22,3 C 52 % 1026,5 hPa 0,0 l/m 19,3 km/h (3 Bft) NW 305 0 min 0 W/m 12,0 C 19,3 C 19,3 km/h (3 Bft)
20.08.2013 14:45 22,1 C 51 % 1026,5 hPa 0,0 l/m 17,8 km/h (3 Bft) NW 325 0 min 0 W/m 11,5 C 19,3 C 17,8 km/h (3 Bft)
20.08.2013 15:00 22,2 C 52 % 1026,5 hPa 0,0 l/m 16,1 km/h (3 Bft) NW 325 0 min 0 W/m 11,9 C 19,7 C 16,1 km/h (3 Bft)
20.08.2013 15:15 22,7 C 52 % 1026,5 hPa 0,0 l/m 18,5 km/h (3 Bft) NW 305 0 min 0 W/m 12,3 C 19,9 C 18,5 km/h (3 Bft)
20.08.2013 15:30 22,2 C 53 % 1026,5 hPa 0,0 l/m 15,0 km/h (3 Bft) N-NW 330 0 min 0 W/m 12,2 C 19,9 C 15,0 km/h (3 Bft)
20.08.2013 15:45 21,8 C 56 % 1026,5 hPa 0,0 l/m 15,6 km/h (3 Bft) W-NW 285 0 min 0 W/m 12,6 C 19,3 C 15,6 km/h (3 Bft)
20.08.2013 16:00 21,0 C 57 % 1026,5 hPa 0,0 l/m 12,1 km/h (2 Bft) N-NW 345 0 min 0 W/m 12,1 C 19,2 C 12,1 km/h (2 Bft)
20.08.2013 16:15 20,6 C 59 % 1026,5 hPa 0,0 l/m 15,7 km/h (3 Bft) N-NW 330 0 min 0 W/m 12,3 C 17,8 C 15,7 km/h (3 Bft)
20.08.2013 16:30 20,1 C 60 % 1026,5 hPa 0,0 l/m 13,5 km/h (3 Bft) W-NW 300 0 min 0 W/m 12,1 C 17,7 C 13,5 km/h (3 Bft)
20.08.2013 16:45 19,8 C 63 % 1026,5 hPa 0,0 l/m 14,4 km/h (3 Bft) W-NW 300 0 min 0 W/m 12,5 C 17,2 C 14,4 km/h (3 Bft)
20.08.2013 17:00 19,7 C 65 % 1026,5 hPa 0,0 l/m 15,6 km/h (3 Bft) W-NW 295 0 min 0 W/m 12,9 C 16,7 C 15,6 km/h (3 Bft)
20.08.2013 17:15 20,2 C 66 % 1026,5 hPa 0,0 l/m 14,9 km/h (3 Bft) NW 320 0 min 0 W/m 13,6 C 17,5 C 14,9 km/h (3 Bft)
20.08.2013 17:30 20,6 C 66 % 1026,5 hPa 0,0 l/m 18,5 km/h (3 Bft) NW 310 0 min 0 W/m 14,0 C 17,3 C 18,5 km/h (3 Bft)
20.08.2013 17:45 20,4 C 66 % 1026,5 hPa 0,0 l/m 17,0 km/h (3 Bft) N-NW 330 0 min 0 W/m 13,8 C 17,3 C 17,0 km/h (3 Bft)
20.08.2013 18:00 20,1 C 64 % 1026,5 hPa 0,0 l/m 14,0 km/h (3 Bft) N-NW 330 0 min 0 W/m 13,1 C 17,6 C 14,0 km/h (3 Bft)
20.08.2013 18:15 20,0 C 65 % 1026,5 hPa 0,0 l/m 13,3 km/h (3 Bft) W-NW 295 0 min 0 W/m 13,2 C 17,7 C 13,3 km/h (3 Bft)
20.08.2013 18:30 19,8 C 66 % 1026,5 hPa 0,0 l/m 13,5 km/h (3 Bft) N-NW 330 0 min 0 W/m 13,3 C 17,4 C 13,5 km/h (3 Bft)
20.08.2013 18:45 19,6 C 67 % 1026,5 hPa 0,0 l/m 15,0 km/h (3 Bft) NW 315 0 min 0 W/m 13,3 C 16,8 C 15,0 km/h (3 Bft)
20.08.2013 19:00 19,5 C 68 % 1026,5 hPa 0,0 l/m 16,5 km/h (3 Bft) N-NW 330 0 min 0 W/m 13,4 C 16,3 C 16,5 km/h (3 Bft)
20.08.2013 19:15 19,6 C 68 % 1026,5 hPa 0,0 l/m 11,8 km/h (2 Bft) NW 305 0 min 0 W/m 13,5 C 17,6 C 11,8 km/h (2 Bft)
20.08.2013 19:30 19,3 C 69 % 1026,5 hPa 0,0 l/m 13,2 km/h (3 Bft) NW 325 0 min 0 W/m 13,5 C 16,9 C 13,2 km/h (3 Bft)
20.08.2013 19:45 19,0 C 69 % 1026,5 hPa 0,0 l/m 11,4 km/h (2 Bft) N-NW 330 0 min 0 W/m 13,2 C 17,1 C 11,4 km/h (2 Bft)
20.08.2013 20:00 18,9 C 70 % 1026,5 hPa 0,0 l/m 10,2 km/h (2 Bft) N-NW 335 0 min 0 W/m 13,3 C 17,4 C 10,2 km/h (2 Bft)
20.08.2013 20:15 18,6 C 70 % 1026,5 hPa 0,0 l/m 10,8 km/h (2 Bft) NW 320 0 min 0 W/m 13,0 C 16,8 C 10,8 km/h (2 Bft)
20.08.2013 20:30 18,5 C 70 % 1026,5 hPa 0,0 l/m 5,0 km/h (1 Bft) NW 320 0 min 0 W/m 12,9 C 18,5 C 5,0 km/h (1 Bft)
20.08.2013 20:45 18,4 C 71 % 1026,5 hPa 0,0 l/m 5,4 km/h (2 Bft) N 355 0 min 0 W/m 13,0 C 18,4 C 5,4 km/h (2 Bft)
20.08.2013 21:00 18,2 C 72 % 1026,5 hPa 0,0 l/m 6,3 km/h (2 Bft) NW 305 0 min 0 W/m 13,1 C 18,2 C 6,3 km/h (2 Bft)
20.08.2013 21:15 18,1 C 72 % 1026,5 hPa 0,0 l/m 5,5 km/h (2 Bft) NW 320 0 min 0 W/m 13,0 C 18,1 C 5,5 km/h (2 Bft)
20.08.2013 21:30 18,0 C 73 % 1026,5 hPa 0,0 l/m 5,4 km/h (2 Bft) NW 310 0 min 0 W/m 13,1 C 18,0 C 5,4 km/h (2 Bft)
20.08.2013 21:45 17,6 C 73 % 1026,5 hPa 0,0 l/m 0,0 km/h (0 Bft) NW 305 0 min 0 W/m 12,7 C 17,6 C 0,0 km/h (0 Bft)
20.08.2013 22:00 17,1 C 74 % 1026,5 hPa 0,0 l/m 0,0 km/h (0 Bft) W 260 0 min 0 W/m 12,4 C 17,1 C 0,0 km/h (0 Bft)
20.08.2013 22:15 16,8 C 75 % 1026,5 hPa 0,0 l/m 0,0 km/h (0 Bft) W 260 0 min 0 W/m 12,3 C 16,8 C 0,0 km/h (0 Bft)
20.08.2013 22:30 16,6 C 76 % 1026,5 hPa 0,0 l/m 0,0 km/h (0 Bft) W 260 0 min 0 W/m 12,3 C 16,6 C 0,0 km/h (0 Bft)
20.08.2013 22:45 16,6 C 77 % 1026,5 hPa 0,0 l/m 0,0 km/h (0 Bft) W 260 0 min 0 W/m 12,5 C 16,6 C 0,0 km/h (0 Bft)
20.08.2013 23:00 16,4 C 78 % 1026,5 hPa 0,0 l/m 0,0 km/h (0 Bft) W 260 0 min 0 W/m 12,6 C 16,4 C 0,0 km/h (0 Bft)
20.08.2013 23:15 16,3 C 78 % 1026,5 hPa 0,0 l/m 0,0 km/h (0 Bft) W 260 0 min 0 W/m 12,5 C 16,3 C 0,0 km/h (0 Bft)
20.08.2013 23:30 16,1 C 78 % 1026,5 hPa 0,0 l/m 0,1 km/h (0 Bft) W 260 0 min 0 W/m 12,3 C 16,1 C 0,1 km/h (0 Bft)
20.08.2013 23:45 16,0 C 78 % 1026,5 hPa 0,0 l/m 3,0 km/h (1 Bft) W 260 0 min 0 W/m 12,2 C 16,0 C 3,0 km/h (1 Bft)
_ Min-Zeit 06:45 14:45 00:00 - 21:45 - - - - 06:30 08:15 21:45
Minimum _ 15,7 C 51 % 1020,5 hPa - 0,0 km/h (0 Bft) - - - - 11,4 C 11,4 C 0,0 km/h (0 Bft)
_ Max-Zeit 15:15 08:45 12:30 00:00 00:15 - - 00:00 00:00 17:30 15:15 00:15
Maximum _ 22,7 C 79 % 1026,5 hPa 0,0 l/m 25,5 km/h
O-NO (4 Bft)
- - 0 min 0 W/m 14,0 C 19,9 C 25,5 km/h
O-NO (4 Bft)
Durchschnitt _ 18,2 C 70 % 1025,0 hPa #0,0 l/m 12,9 km/h (3 Bft) NW - #0 min. 0 W/m 12,5 C 15,8 C 12,9 km/h (3 Bft)
copyright by Holger Just